Impacts METAR Board
IDs:

KCNW - Waco/Texas State Tec, TX, US

Updated at: 0100 UTC 01 Nov 2020
Potential Impact None Slight Moderate High
Time 31/13Z 31/14Z 31/15Z 31/16Z 31/17Z 31/18Z 31/19Z 31/20Z 31/21Z 31/22Z 31/23Z 01/00Z 01/01Z
Temp37 45 50 57 63 66 70 72 72 72 70 63 57
Dewpt37 45 46 46 46 46 43 43 43 41 41 45 46
Altim30.23 30.25 30.25 30.25 30.24 30.20 30.17 30.12 30.11 30.10 30.10 30.09 30.12
VIS10 10 10 10 10 10 10 10 10 10 10 10 10
CIG-- -- -- -- -- -- -- -- -- -- -- -- --
CoverSKCSKCSKCSKCSKCSKCSKCSKCSKCSKCSKCSKCSKC
FltCatVFRVFRVFRVFRVFRVFRVFRVFRVFRVFRVFRVFRVFR
WX--------------------------
WDir001701701701402001701601401501500
WSpd0 0 4 4 4 6 9 10 8 8 7 5 0
WGst-- -- -- -- -- -- -- -- 14 -- -- -- --
Raw hourly METARs
KCNW 311255Z 00000KT 10SM SKC 03/03 A3023
KCNW 311355Z 00000KT 10SM SKC 07/07 A3025
KCNW 311455Z 17004KT 10SM SKC 10/08 A3025
KCNW 311555Z 17004KT 10SM SKC 14/08 A3025
KCNW 311655Z 17004KT 10SM SKC 17/08 A3024
KCNW 311755Z 14006KT 10SM SKC 19/08 A3020
KCNW 311855Z 20009KT 10SM SKC 21/06 A3017
KCNW 311955Z 17010KT 10SM SKC 22/06 A3012
KCNW 312055Z 16008G14KT 10SM SKC 22/06 A3011
KCNW 312155Z 14008KT 10SM SKC 22/05 A3010
KCNW 312255Z 15007KT 10SM SKC 21/05 A3010
KCNW 312355Z 15005KT 10SM SKC 17/07 A3009
KCNW 010055Z 00000KT 10SM SKC 14/08 A3012